»·PEaware :: N456MJ KSLC-KLOL

N456MJ :: KSLC-KLOL

FLIGHT INFORMATION

Flight Status: Arrived
Operator: Privately registered:
United States
More flights under this callsign
Pilot: Jone M. (10385)
Aircraft: CESSNA 172 SKYHAWK
(C172)
More flights by this aircraft type
Origin: KSLC Salt Lake City Intl
United States
Destination: KLOL Derby
United States
More flights between these airports :: More routes between these airports
Route: +KENV KEKO KBAM
File this flight plan on PilotEdge
Remarks:
Altitude:
(Current/Filed)
12,500ft
Speed:
(Current/Filed)
140kts
Departed: 28-Feb-19 12:26 PM
Arrived: 28-Feb-19 03:54 PM
Distance/Time
Traveled:
304nm/3:28
Distance/Time
To Go:
Arrived

Flight Plot

Page will automatically refresh every two minutes.

Flight plan parsing failed; only flown route is shown


Map Options




Map Legend


Flown Route
Filed Route
Departure Airport
Arrival Airport
Navaid (VOR, NDB)
Fix

Horizontal Profiles

Position Reports

Time Latitude Longitude Heading Altitude Ground
Speed
28-Feb-19 12:04 40.775040 -111.959225 358 4230ft 0kts
28-Feb-19 12:05 40.775040 -111.959225 358 4230ft 0kts
28-Feb-19 12:06 40.775040 -111.959225 358 4230ft 0kts
28-Feb-19 12:07 40.775040 -111.959224 358 4230ft 0kts
28-Feb-19 12:08 40.775040 -111.959224 358 4230ft 0kts
28-Feb-19 12:09 40.775040 -111.959224 358 4230ft 0kts
28-Feb-19 12:10 40.775040 -111.959224 358 4230ft 0kts
28-Feb-19 12:11 40.775040 -111.959224 358 4230ft 0kts
28-Feb-19 12:12 40.775040 -111.959224 358 4230ft 0kts
28-Feb-19 12:13 40.775040 -111.959224 358 4230ft 0kts
28-Feb-19 12:14 40.775040 -111.959224 358 4230ft 0kts
28-Feb-19 12:15 40.775285 -111.959678 284 4230ft 4kts
28-Feb-19 12:16 40.775599 -111.960615 353 4230ft 11kts
28-Feb-19 12:17 40.779636 -111.960008 359 4230ft 14kts
28-Feb-19 12:18 40.783565 -111.960006 359 4230ft 19kts
28-Feb-19 12:19 40.790669 -111.960005 356 4230ft 29kts
28-Feb-19 12:20 40.796630 -111.960016 358 4230ft 12kts
28-Feb-19 12:21 40.799218 -111.960027 317 4230ft 5kts
28-Feb-19 12:22 40.799220 -111.960137 229 4230ft 0kts
28-Feb-19 12:23 40.799197 -111.960197 252 4230ft 4kts
28-Feb-19 12:24 40.798047 -111.962073 180 4230ft 4kts
28-Feb-19 12:25 40.793059 -111.962056 183 4293ft 64kts
28-Feb-19 12:26 40.773534 -111.961643 187 4861ft 71kts
28-Feb-19 12:27 40.767043 -111.984941 276 5279ft 86kts
28-Feb-19 12:28 40.770757 -112.018792 268 5288ft 97kts
28-Feb-19 12:29 40.771398 -112.054860 265 5224ft 97kts
28-Feb-19 12:30 40.771440 -112.090198 263 5205ft 95kts
28-Feb-19 12:31 40.770404 -112.125181 261 5173ft 96kts
28-Feb-19 12:32 40.765627 -112.158631 248 5234ft 84kts
28-Feb-19 12:33 40.753934 -112.181816 229 5820ft 71kts
28-Feb-19 12:34 40.741968 -112.201433 229 6372ft 68kts
28-Feb-19 12:35 40.730714 -112.221515 236 6872ft 67kts
28-Feb-19 12:36 40.726286 -112.244889 262 7364ft 67kts
28-Feb-19 12:37 40.725982 -112.276434 265 7360ft 93kts
28-Feb-19 12:38 40.725929 -112.311164 265 7359ft 95kts
28-Feb-19 12:39 40.725932 -112.346348 265 7359ft 95kts
28-Feb-19 12:40 40.725918 -112.381535 266 7359ft 95kts
28-Feb-19 12:41 40.725930 -112.416603 265 7359ft 95kts
28-Feb-19 12:42 40.725922 -112.451457 265 7378ft 92kts
28-Feb-19 12:43 40.725907 -112.478960 263 7943ft 64kts
28-Feb-19 12:44 40.725819 -112.501481 264 8408ft 66kts
28-Feb-19 12:45 40.725745 -112.528785 265 8629ft 79kts
28-Feb-19 12:46 40.725733 -112.555838 265 9004ft 69kts
28-Feb-19 12:47 40.725665 -112.580508 265 9352ft 67kts
28-Feb-19 12:48 40.725606 -112.605752 266 9647ft 68kts
28-Feb-19 12:49 40.725544 -112.630983 266 9935ft 68kts
28-Feb-19 12:50 40.725475 -112.655947 266 10227ft 67kts
28-Feb-19 12:51 40.725403 -112.680554 266 10532ft 67kts
28-Feb-19 12:52 40.725325 -112.705798 267 10778ft 70kts
28-Feb-19 12:53 40.725246 -112.731840 267 10985ft 71kts
28-Feb-19 12:54 40.725160 -112.758042 267 11191ft 71kts
28-Feb-19 12:55 40.725066 -112.783615 268 11377ft 64kts
28-Feb-19 12:56 40.724957 -112.810668 268 11462ft 84kts
28-Feb-19 12:57 40.724861 -112.842982 267 11584ft 86kts
28-Feb-19 12:58 40.724746 -112.873893 267 11783ft 82kts
28-Feb-19 12:59 40.724614 -112.903842 267 11984ft 80kts
28-Feb-19 13:00 40.724481 -112.933109 266 12187ft 78kts
28-Feb-19 13:01 40.724338 -112.961876 265 12391ft 76kts
28-Feb-19 13:02 40.724180 -112.990063 265 12529ft 80kts
28-Feb-19 13:03 40.724013 -113.021447 265 12530ft 88kts
28-Feb-19 13:04 40.723834 -113.054331 264 12532ft 90kts
28-Feb-19 13:05 40.723643 -113.087037 264 12531ft 91kts
28-Feb-19 13:06 40.723439 -113.120560 264 12531ft 91kts
28-Feb-19 13:07 40.723227 -113.153989 264 12531ft 91kts
28-Feb-19 13:08 40.723000 -113.187208 265 12510ft 88kts
28-Feb-19 13:09 40.722804 -113.217858 265 12511ft 79kts
28-Feb-19 13:10 40.722590 -113.246627 265 12511ft 77kts
28-Feb-19 13:11 40.722343 -113.276424 265 12513ft 84kts
28-Feb-19 13:12 40.722101 -113.307656 265 12510ft 85kts
28-Feb-19 13:13 40.721849 -113.338924 265 12508ft 86kts
28-Feb-19 13:14 40.721589 -113.370691 265 12505ft 85kts
28-Feb-19 13:15 40.722066 -113.402393 267 12502ft 86kts
28-Feb-19 13:16 40.722527 -113.433077 265 12500ft 81kts
28-Feb-19 13:17 40.722397 -113.464616 265 12498ft 88kts
28-Feb-19 13:18 40.722146 -113.497745 265 12495ft 90kts
28-Feb-19 13:20 40.721862 -113.531402 265 12492ft 91kts
28-Feb-19 13:21 40.721567 -113.564729 265 12492ft 90kts
28-Feb-19 13:22 40.721260 -113.598102 265 12492ft 90kts
28-Feb-19 13:23 40.720947 -113.631227 265 12492ft 90kts
28-Feb-19 13:24 40.720621 -113.664409 265 12497ft 90kts
28-Feb-19 13:25 40.720283 -113.698122 265 12496ft 91kts
28-Feb-19 13:26 40.719935 -113.731917 265 12496ft 92kts
28-Feb-19 13:27 40.719576 -113.765756 265 12496ft 92kts
28-Feb-19 13:28 40.719207 -113.799682 265 12496ft 92kts
28-Feb-19 13:29 40.718826 -113.833588 265 12496ft 92kts
28-Feb-19 13:30 40.718438 -113.867413 265 12495ft 92kts
28-Feb-19 13:31 40.718038 -113.901358 265 12495ft 92kts
28-Feb-19 13:32 40.717630 -113.935133 265 12497ft 91kts
28-Feb-19 13:33 40.717212 -113.968931 265 12504ft 91kts
28-Feb-19 13:34 40.716782 -114.002789 265 12504ft 91kts
28-Feb-19 13:35 40.717071 -114.036606 269 12504ft 92kts
28-Feb-19 13:36 40.719249 -114.070425 270 12504ft 92kts
28-Feb-19 13:37 40.721478 -114.104166 270 12503ft 92kts
28-Feb-19 13:38 40.723720 -114.138071 270 12503ft 92kts
28-Feb-19 13:39 40.725950 -114.171939 270 12503ft 92kts
28-Feb-19 13:39 40.727790 -114.199995 270 12503ft 91kts
28-Feb-19 13:41 40.730361 -114.239311 270 12503ft 91kts
28-Feb-19 13:42 40.732542 -114.272875 270 12503ft 91kts
28-Feb-19 13:42 40.734456 -114.302629 270 12302ft 105kts
28-Feb-19 13:43 40.737018 -114.342204 271 11900ft 109kts
28-Feb-19 13:45 40.740052 -114.389560 272 11419ft 110kts
28-Feb-19 13:45 40.742206 -114.423273 273 11077ft 111kts
28-Feb-19 13:46 40.744787 -114.463840 274 10659ft 109kts
28-Feb-19 13:47 40.747297 -114.503444 275 10501ft 99kts
28-Feb-19 13:48 40.749531 -114.538999 275 10502ft 92kts
28-Feb-19 13:49 40.751727 -114.574159 274 10505ft 98kts
28-Feb-19 13:50 40.753999 -114.610742 274 10504ft 100kts
28-Feb-19 13:51 40.756285 -114.648065 274 10504ft 102kts
28-Feb-19 13:52 40.757519 -114.686003 271 10508ft 103kts
28-Feb-19 13:53 40.758668 -114.724130 273 10508ft 103kts
28-Feb-19 13:54 40.760577 -114.762073 273 10511ft 103kts
28-Feb-19 13:55 40.762710 -114.799937 272 10513ft 103kts
28-Feb-19 13:56 40.764916 -114.837854 272 10516ft 102kts
28-Feb-19 13:57 40.767126 -114.875539 271 10519ft 103kts
28-Feb-19 13:58 40.769337 -114.913355 270 10521ft 102kts
28-Feb-19 13:59 40.771515 -114.950741 270 10524ft 101kts
28-Feb-19 14:00 40.773639 -114.987550 269 10526ft 99kts
28-Feb-19 14:01 40.775723 -115.023763 269 10525ft 98kts
28-Feb-19 14:02 40.777785 -115.059799 269 10525ft 97kts
28-Feb-19 14:03 40.779821 -115.095681 270 10525ft 98kts
28-Feb-19 14:04 40.781882 -115.132118 270 10525ft 99kts
28-Feb-19 14:05 40.783935 -115.168649 270 10525ft 99kts
28-Feb-19 14:06 40.785976 -115.205036 270 10525ft 98kts
28-Feb-19 14:07 40.787983 -115.241043 270 10524ft 98kts
28-Feb-19 14:08 40.789992 -115.277201 270 10524ft 98kts
28-Feb-19 14:09 40.791989 -115.313396 269 10506ft 98kts
28-Feb-19 14:10 40.793951 -115.349366 269 10506ft 97kts
28-Feb-19 14:11 40.795904 -115.385292 270 10505ft 97kts
28-Feb-19 14:12 40.797835 -115.420912 269 10505ft 95kts
28-Feb-19 14:13 40.799715 -115.455835 269 10505ft 94kts
28-Feb-19 14:14 40.801563 -115.490487 269 10505ft 94kts
28-Feb-19 14:15 40.803393 -115.524913 270 10505ft 93kts
28-Feb-19 14:16 40.805215 -115.559439 269 10504ft 93kts
28-Feb-19 14:17 40.807025 -115.593923 269 10504ft 93kts
28-Feb-19 14:18 40.808827 -115.628272 269 10504ft 93kts
28-Feb-19 14:19 40.810595 -115.662570 269 10509ft 93kts
28-Feb-19 14:20 40.812397 -115.697262 269 10509ft 95kts
28-Feb-19 14:21 40.814182 -115.732212 269 10508ft 95kts
28-Feb-19 14:22 40.815984 -115.767362 269 10509ft 95kts
28-Feb-19 14:23 40.814742 -115.801813 254 10509ft 94kts
28-Feb-19 14:24 40.807878 -115.835348 254 10508ft 94kts
28-Feb-19 14:25 40.800975 -115.868911 254 10508ft 94kts
28-Feb-19 14:26 40.794075 -115.902396 254 10508ft 94kts
28-Feb-19 14:27 40.787184 -115.935776 254 10508ft 94kts
28-Feb-19 14:28 40.780269 -115.969205 254 10508ft 94kts
28-Feb-19 14:29 40.773352 -116.002553 254 10507ft 94kts
28-Feb-19 14:30 40.766437 -116.035872 254 10507ft 93kts
28-Feb-19 14:31 40.759525 -116.069104 254 10507ft 93kts
28-Feb-19 14:32 40.752591 -116.102413 254 10507ft 93kts
28-Feb-19 14:33 40.745642 -116.135708 254 10507ft 93kts
28-Feb-19 14:34 40.738674 -116.169069 254 10506ft 93kts
28-Feb-19 14:35 40.731750 -116.202165 254 10507ft 93kts
28-Feb-19 14:36 40.724796 -116.235332 254 10509ft 93kts
28-Feb-19 14:37 40.717866 -116.268365 254 10510ft 93kts
28-Feb-19 14:38 40.710903 -116.301462 254 10511ft 93kts
28-Feb-19 14:39 40.704038 -116.334066 254 10512ft 92kts
28-Feb-19 14:40 40.697110 -116.366886 254 10512ft 91kts
28-Feb-19 14:41 40.691481 -116.393507 254 10517ft 79kts
28-Feb-19 14:42 40.685393 -116.422261 254 10515ft 89kts
28-Feb-19 14:43 40.678666 -116.454054 254 10514ft 91kts
28-Feb-19 14:44 40.672085 -116.485052 254 10514ft 92kts
28-Feb-19 14:45 40.665223 -116.517343 254 10513ft 92kts
28-Feb-19 14:46 40.658301 -116.549871 254 10514ft 92kts
28-Feb-19 14:47 40.651333 -116.582611 254 10513ft 92kts
28-Feb-19 14:48 40.644388 -116.615151 254 10513ft 92kts
28-Feb-19 14:49 40.637417 -116.647745 254 10513ft 91kts
28-Feb-19 14:50 40.630401 -116.680531 254 10518ft 93kts
28-Feb-19 14:51 40.623302 -116.713676 254 10518ft 94kts
28-Feb-19 14:52 40.616168 -116.746878 254 10517ft 94kts
28-Feb-19 14:53 40.609015 -116.780160 254 10517ft 94kts
28-Feb-19 14:54 40.601837 -116.813497 254 10517ft 94kts
28-Feb-19 14:55 40.594654 -116.846803 254 10517ft 94kts
28-Feb-19 14:56 40.586557 -116.879786 249 10517ft 93kts
28-Feb-19 14:57 40.576873 -116.911417 249 10517ft 93kts
28-Feb-19 14:58 40.566996 -116.943511 249 10516ft 93kts
28-Feb-19 14:59 40.557168 -116.975385 249 10516ft 93kts
28-Feb-19 15:00 40.547334 -117.007250 248 10516ft 93kts
28-Feb-19 15:01 40.533234 -117.036167 239 10516ft 93kts
28-Feb-19 15:02 40.520567 -117.066131 245 10515ft 93kts
28-Feb-19 15:03 40.509799 -117.097253 247 10515ft 93kts
28-Feb-19 15:04 40.499798 -117.128565 247 10515ft 92kts
28-Feb-19 15:05 40.490003 -117.160185 248 10515ft 92kts
28-Feb-19 15:06 40.480287 -117.191928 248 10515ft 92kts
28-Feb-19 15:07 40.470615 -117.223623 248 10514ft 92kts
28-Feb-19 15:08 40.460959 -117.255261 248 10515ft 92kts
28-Feb-19 15:09 40.451303 -117.286920 248 10514ft 92kts
28-Feb-19 15:10 40.441674 -117.318416 248 10510ft 92kts
28-Feb-19 15:11 40.431920 -117.350311 249 10505ft 93kts
28-Feb-19 15:12 40.422134 -117.382304 249 10504ft 93kts
28-Feb-19 15:13 40.412326 -117.414294 249 10504ft 93kts
28-Feb-19 15:14 40.402511 -117.446289 249 10505ft 93kts
28-Feb-19 15:15 40.392719 -117.478168 249 10504ft 93kts
28-Feb-19 15:16 40.383046 -117.509613 249 10504ft 93kts
28-Feb-19 15:17 40.373403 -117.540914 249 10507ft 93kts
28-Feb-19 15:18 40.363633 -117.572618 248 10504ft 92kts
28-Feb-19 15:19 40.353911 -117.604108 249 10503ft 93kts
28-Feb-19 15:20 40.344282 -117.635273 249 10503ft 90kts
28-Feb-19 15:21 40.334784 -117.665969 248 10507ft 89kts
28-Feb-19 15:22 40.325175 -117.696991 248 10508ft 93kts
28-Feb-19 15:23 40.315347 -117.728717 248 10509ft 93kts
28-Feb-19 15:24 40.305537 -117.760293 248 10505ft 88kts
28-Feb-19 15:25 40.297044 -117.787582 248 10454ft 56kts
28-Feb-19 15:26 40.290248 -117.809377 247 10478ft 79kts
28-Feb-19 15:27 40.281179 -117.838471 247 10472ft 90kts
28-Feb-19 15:29 40.271561 -117.869333 247 10471ft 92kts
28-Feb-19 15:30 40.261808 -117.900565 247 10470ft 92kts
28-Feb-19 15:31 40.251956 -117.932083 248 10470ft 92kts
28-Feb-19 15:32 40.242427 -117.963708 250 10469ft 92kts
28-Feb-19 15:33 40.233979 -117.995928 250 10469ft 93kts
28-Feb-19 15:34 40.225455 -118.028090 250 10470ft 92kts
28-Feb-19 15:35 40.216907 -118.060106 250 10469ft 92kts
28-Feb-19 15:36 40.208234 -118.091911 249 10469ft 92kts
28-Feb-19 15:37 40.198694 -118.123454 247 10468ft 92kts
28-Feb-19 15:38 40.188842 -118.154926 248 10468ft 92kts
28-Feb-19 15:39 40.179074 -118.186054 248 10468ft 92kts
28-Feb-19 15:40 40.169245 -118.217329 247 10468ft 92kts
28-Feb-19 15:41 40.159442 -118.248434 247 10468ft 92kts
28-Feb-19 15:42 40.149598 -118.279698 247 10468ft 92kts
28-Feb-19 15:43 40.139760 -118.310852 247 10467ft 92kts
28-Feb-19 15:44 40.129561 -118.342366 248 10196ft 94kts
28-Feb-19 15:45 40.120297 -118.372768 249 9786ft 83kts
28-Feb-19 15:46 40.118126 -118.399788 245 8956ft 67kts
28-Feb-19 15:47 40.108461 -118.418208 231 7782ft 59kts
28-Feb-19 15:47 40.099102 -118.429309 233 7000ft 56kts
28-Feb-19 15:49 40.082909 -118.444508 218 6313ft 78kts
28-Feb-19 15:50 40.062806 -118.456338 251 6061ft 78kts
28-Feb-19 15:50 40.064617 -118.481908 269 5767ft 95kts
28-Feb-19 15:51 40.064319 -118.512454 262 5046ft 81kts
28-Feb-19 15:52 40.064229 -118.539421 265 4275ft 51kts
28-Feb-19 15:53 40.064187 -118.556482 270 3909ft 38kts
28-Feb-19 15:54 40.064241 -118.566845 267 3901ft 14kts
28-Feb-19 15:55 40.064543 -118.570829 25 3901ft 11kts
28-Feb-19 15:56 40.067371 -118.568658 32 3902ft 19kts
28-Feb-19 15:57 40.069365 -118.569020 254 3904ft 0kts
28-Feb-19 15:58 40.069365 -118.569020 254 3904ft 0kts

Navigation Log

Ident Type
Flight plan parsing failed, navigation log unavailable